EGVP

Middle Wallop Airfield Airport

Middle Wallop, United Kingdom
METAR EGVP 191450Z 26015KT 9999 SCT032 06/00 Q1009 BLU NOSIG
Observed Flight Rules
Jan-19 @ 14:50 UTC (35 minutes ago) Visual Flight Rules
Wind Visibility Clouds
260° at 15 knots 10,000+ meters
  • Scattered at 3,200' AGL
Temperatures Readings
Current 6°C / 43°F
Dewpoint 0°C / 32°F
Humidity 66%
Altimeter 29.79" Hg
Pressure 1009 hPa
Elevation 91
METAR EGVP 191450Z 26015KT 9999 SCT032 06/00 Q1009 BLU NOSIG
Observed Flight Rules
Jan-19 @ 14:50 UTC
(35 minutes ago)
VFR
Wind Visibility
260° at 15 knots 10,000+ meters
Clouds
  • Scattered at 3,200' AGL
Temperature Dewpoint
6°C / 43°F 0°C / 32°F
Humidity Altimeter Pressure
66% 29.79" Hg 1009 hPa